createdAt,value
2023-03-02T00:00:06.504Z,-4.34
2023-03-02T00:02:52.192Z,-4.40
2023-03-02T00:05:38.587Z,-4.21
2023-03-02T00:08:24.183Z,-4.17
2023-03-02T00:11:09.690Z,-4.08
2023-03-02T00:13:55.128Z,-3.90
2023-03-02T00:16:40.686Z,-3.82
2023-03-02T00:19:26.045Z,-3.79
2023-03-02T00:22:11.482Z,-4.09
2023-03-02T00:24:57.038Z,-4.21
2023-03-02T00:27:43.201Z,-4.12
2023-03-02T00:30:28.624Z,-4.10
2023-03-02T00:33:14.068Z,-4.20
2023-03-02T00:35:59.262Z,-4.07
2023-03-02T00:38:44.998Z,-4.13
2023-03-02T00:41:30.658Z,-4.69
2023-03-02T00:44:17.837Z,-4.22
2023-03-02T00:47:03.582Z,-4.21
2023-03-02T00:49:49.255Z,-4.25
2023-03-02T00:52:34.915Z,-4.44
2023-03-02T00:55:20.102Z,-4.37
2023-03-02T00:58:06.168Z,-4.36
2023-03-02T01:00:51.720Z,-4.37
2023-03-02T01:03:37.848Z,-4.22
2023-03-02T01:06:23.845Z,-4.25
2023-03-02T01:09:09.228Z,-4.22
2023-03-02T01:11:54.876Z,-4.32
2023-03-02T01:14:44.044Z,-4.28
2023-03-02T01:17:30.661Z,-4.10
2023-03-02T01:20:17.016Z,-3.87
2023-03-02T01:23:02.713Z,-3.66
2023-03-02T01:25:48.006Z,-3.86
2023-03-02T01:28:33.698Z,-3.67
2023-03-02T01:31:18.764Z,-4.01
2023-03-02T01:34:04.088Z,-4.19
2023-03-02T01:36:49.247Z,-4.18
2023-03-02T01:39:34.606Z,-4.83
2023-03-02T01:42:20.003Z,-4.56
2023-03-02T01:45:26.366Z,-4.47
2023-03-02T01:48:13.871Z,-4.65
2023-03-02T01:51:01.939Z,-4.65
2023-03-02T01:53:51.068Z,-4.55
2023-03-02T01:56:41.078Z,-4.00
2023-03-02T01:59:30.226Z,-4.33
2023-03-02T02:02:15.821Z,-4.45
2023-03-02T02:05:02.213Z,-4.20
2023-03-02T02:07:47.485Z,-4.21
2023-03-02T02:10:34.264Z,-3.89
2023-03-02T02:13:19.850Z,-3.86
2023-03-02T02:16:06.793Z,-3.86
2023-03-02T02:18:52.790Z,-3.91
2023-03-02T02:21:38.119Z,-4.06
2023-03-02T02:24:37.141Z,-4.12
2023-03-02T02:27:22.696Z,-3.93
2023-03-02T02:30:10.638Z,-4.47
2023-03-02T02:32:58.372Z,-3.90
2023-03-02T02:35:46.634Z,-4.07
2023-03-02T02:38:33.838Z,-4.12
2023-03-02T02:41:24.783Z,-4.02
2023-03-02T02:44:15.903Z,-4.54
2023-03-02T02:47:01.389Z,-4.13
2023-03-02T02:49:49.914Z,-4.30
2023-03-02T02:52:35.473Z,-4.43
2023-03-02T02:55:24.016Z,-4.41
2023-03-02T02:58:26.154Z,-4.49
2023-03-02T03:01:17.946Z,-4.44
2023-03-02T03:04:06.516Z,-4.74
2023-03-02T03:06:53.986Z,-4.57
2023-03-02T03:09:39.595Z,-4.74
2023-03-02T03:12:28.939Z,-5.05
2023-03-02T03:15:15.028Z,-4.78
2023-03-02T03:18:00.184Z,-4.72
2023-03-02T03:20:46.814Z,-4.72
2023-03-02T03:23:32.270Z,-4.70
2023-03-02T03:26:18.056Z,-4.61
2023-03-02T03:29:05.239Z,-4.58
2023-03-02T03:31:51.609Z,-4.71
2023-03-02T03:34:38.334Z,-4.60
2023-03-02T03:37:23.877Z,-4.54
2023-03-02T03:40:09.889Z,-4.56
2023-03-02T03:42:57.849Z,-4.44
2023-03-02T03:45:43.305Z,-4.46
2023-03-02T03:48:28.755Z,-4.53
2023-03-02T03:51:14.030Z,-4.79
2023-03-02T03:54:00.034Z,-4.55
2023-03-02T03:56:50.909Z,-4.36
2023-03-02T03:59:37.326Z,-4.49
2023-03-02T04:02:24.169Z,-4.48
2023-03-02T04:05:10.988Z,-4.42
2023-03-02T04:07:56.455Z,-4.41
2023-03-02T04:10:41.891Z,-5.63
2023-03-02T04:13:27.377Z,-4.23
2023-03-02T04:16:13.046Z,-4.22
2023-03-02T04:18:58.885Z,-4.30
2023-03-02T04:21:48.776Z,-4.13
2023-03-02T04:24:35.970Z,-4.35
2023-03-02T04:27:22.688Z,-4.27
2023-03-02T04:30:09.039Z,-4.21
2023-03-02T04:32:54.862Z,-4.19
2023-03-02T04:35:40.524Z,-4.24
2023-03-02T04:38:26.359Z,-4.30
2023-03-02T04:41:11.693Z,-4.28
2023-03-02T04:43:57.168Z,-4.32
2023-03-02T04:46:44.833Z,-4.81
2023-03-02T04:49:30.509Z,-4.70
2023-03-02T04:52:16.389Z,-4.38
2023-03-02T04:55:02.093Z,-4.35
2023-03-02T04:57:47.936Z,-4.40
2023-03-02T05:00:34.400Z,-4.45
2023-03-02T05:03:19.903Z,-4.78
2023-03-02T05:06:06.021Z,-4.45
2023-03-02T05:08:52.878Z,-4.50
2023-03-02T05:11:38.714Z,-4.38
2023-03-02T05:14:25.002Z,-4.33
2023-03-02T05:17:10.528Z,-5.09
2023-03-02T05:19:55.945Z,-4.83
2023-03-02T05:22:41.926Z,-5.10
2023-03-02T05:25:30.312Z,-5.01
2023-03-02T05:28:16.086Z,-5.03
2023-03-02T05:31:01.657Z,-4.92
2023-03-02T05:33:48.042Z,-5.24
2023-03-02T05:36:33.810Z,-5.34
2023-03-02T05:39:19.388Z,-5.64
2023-03-02T05:42:04.477Z,-5.73
2023-03-02T05:44:49.912Z,-5.40
2023-03-02T05:47:35.177Z,-5.26
2023-03-02T05:50:21.360Z,-5.27
2023-03-02T05:53:07.772Z,-5.55
2023-03-02T05:55:53.844Z,-5.01
2023-03-02T05:58:39.292Z,-5.07
2023-03-02T06:01:24.682Z,-5.25
2023-03-02T06:04:10.052Z,-5.46
2023-03-02T06:06:56.427Z,-6.18
2023-03-02T06:09:41.972Z,-5.70
2023-03-02T06:12:27.363Z,-5.64
2023-03-02T06:15:13.209Z,-5.27
2023-03-02T06:17:58.511Z,-5.28
2023-03-02T06:20:43.815Z,-5.28
2023-03-02T06:23:29.348Z,-5.10
2023-03-02T06:26:14.662Z,-4.82
2023-03-02T06:29:00.132Z,-4.68
2023-03-02T06:31:45.641Z,-4.78
2023-03-02T06:34:31.430Z,-4.55
2023-03-02T06:37:16.769Z,-4.81
2023-03-02T06:40:03.057Z,-4.56
2023-03-02T06:42:48.184Z,-4.35
2023-03-02T06:45:33.535Z,-4.45
2023-03-02T06:48:18.903Z,-4.37
2023-03-02T06:51:04.798Z,-4.31
2023-03-02T06:53:50.253Z,-4.57
2023-03-02T06:56:35.959Z,-4.39
2023-03-02T06:59:20.988Z,-4.53
2023-03-02T07:02:06.738Z,-4.82
2023-03-02T07:04:51.871Z,-4.49
2023-03-02T07:07:37.531Z,-4.19
2023-03-02T07:10:23.018Z,-4.31
2023-03-02T07:13:09.376Z,-4.66
2023-03-02T07:15:54.567Z,-4.12
2023-03-02T07:18:40.791Z,-4.01
2023-03-02T07:21:26.097Z,-3.71
2023-03-02T07:24:11.320Z,-3.69
2023-03-02T07:26:56.736Z,-3.75
2023-03-02T07:29:42.170Z,-3.70
2023-03-02T07:32:27.771Z,-3.56
2023-03-02T07:35:13.251Z,-3.90
2023-03-02T07:37:58.206Z,-3.56
2023-03-02T07:40:43.924Z,-3.47
2023-03-02T07:43:29.305Z,-3.17
2023-03-02T07:46:14.443Z,-2.93
2023-03-02T07:48:59.974Z,-2.96
2023-03-02T07:51:45.227Z,-2.85
2023-03-02T07:54:31.040Z,-2.59
2023-03-02T07:57:16.413Z,-2.75
2023-03-02T08:00:02.406Z,-2.35
2023-03-02T08:02:56.995Z,-2.26
2023-03-02T08:05:42.676Z,-2.35
2023-03-02T08:08:28.594Z,-2.15
2023-03-02T08:11:16.456Z,-2.61
2023-03-02T08:14:02.920Z,-2.02
2023-03-02T08:16:48.192Z,-1.94
2023-03-02T08:19:33.548Z,-1.78
2023-03-02T08:22:18.780Z,-2.40
2023-03-02T08:25:04.575Z,-1.54
2023-03-02T08:27:50.300Z,-1.72
2023-03-02T08:30:35.722Z,-1.54
2023-03-02T08:33:21.211Z,-1.58
2023-03-02T08:36:11.245Z,-1.53
2023-03-02T08:38:56.282Z,-1.44
2023-03-02T08:41:41.753Z,-1.34
2023-03-02T08:44:27.372Z,-1.52
2023-03-02T08:47:12.910Z,-1.51
2023-03-02T08:49:58.150Z,-1.67
2023-03-02T08:52:43.721Z,-1.56
2023-03-02T08:55:29.077Z,-1.40
2023-03-02T08:58:14.995Z,-1.21
2023-03-02T09:01:00.302Z,-0.91
2023-03-02T09:03:46.241Z,-0.81
2023-03-02T09:06:34.528Z,-0.96
2023-03-02T09:09:19.851Z,-1.12
2023-03-02T09:12:05.048Z,-0.83
2023-03-02T09:14:50.289Z,-0.74
2023-03-02T09:17:35.506Z,-0.94
2023-03-02T09:20:21.281Z,-1.26
2023-03-02T09:23:06.707Z,-0.61
2023-03-02T09:25:52.813Z,-0.71
2023-03-02T09:28:38.637Z,-0.72
2023-03-02T09:31:24.403Z,-0.17
2023-03-02T09:34:09.708Z,-0.33
2023-03-02T09:36:55.359Z,-0.19
2023-03-02T09:39:40.643Z,0.04
2023-03-02T09:42:49.285Z,0.04
2023-03-02T09:45:56.334Z,0.33
2023-03-02T09:48:47.573Z,0.40
2023-03-02T09:51:39.742Z,0.52
2023-03-02T09:54:25.569Z,0.36
2023-03-02T09:57:22.595Z,0.40
2023-03-02T10:00:30.034Z,-0.11
2023-03-02T10:03:22.770Z,0.22
2023-03-02T10:06:09.273Z,0.21
2023-03-02T10:08:55.136Z,0.26
2023-03-02T10:11:46.387Z,0.47
2023-03-02T10:14:39.081Z,0.80
2023-03-02T10:17:43.552Z,0.63
2023-03-02T10:20:37.718Z,0.75
2023-03-02T10:23:38.593Z,0.84
2023-03-02T10:26:32.301Z,0.65
2023-03-02T10:29:50.111Z,1.10
2023-03-02T10:32:43.561Z,1.13
2023-03-02T10:35:30.771Z,1.05
2023-03-02T10:38:22.390Z,0.84
2023-03-02T10:41:15.151Z,1.09
2023-03-02T10:44:23.736Z,1.12
2023-03-02T10:47:28.951Z,1.16
2023-03-02T10:50:22.118Z,1.56
2023-03-02T10:53:17.276Z,1.06
2023-03-02T10:56:05.499Z,1.69
2023-03-02T10:58:50.965Z,1.73
2023-03-02T11:01:36.352Z,1.65
2023-03-02T11:04:22.192Z,0.72
2023-03-02T11:07:28.407Z,1.05
2023-03-02T11:10:21.005Z,1.79
2023-03-02T11:13:19.612Z,1.91
2023-03-02T11:16:24.480Z,1.78
2023-03-02T11:19:34.829Z,1.96
2023-03-02T11:22:41.668Z,2.05
2023-03-02T11:25:35.450Z,1.88
2023-03-02T11:28:47.079Z,2.10
2023-03-02T11:31:41.346Z,2.33
2023-03-02T11:34:51.005Z,2.39
2023-03-02T11:37:42.644Z,2.65
2023-03-02T11:40:47.054Z,2.42
2023-03-02T11:43:32.721Z,3.12
2023-03-02T11:46:26.411Z,3.10
2023-03-02T11:49:18.790Z,3.24
2023-03-02T11:52:04.288Z,3.29
2023-03-02T11:54:55.456Z,3.31
2023-03-02T11:57:45.403Z,3.28
2023-03-02T12:00:36.839Z,3.16
2023-03-02T12:03:33.179Z,3.07
2023-03-02T12:06:18.697Z,3.37
2023-03-02T12:09:12.283Z,3.47
2023-03-02T12:12:14.911Z,3.22
2023-03-02T12:15:00.947Z,3.45
2023-03-02T12:17:46.576Z,3.65
2023-03-02T12:20:31.835Z,3.55
2023-03-02T12:23:23.553Z,3.49
2023-03-02T12:26:26.581Z,3.39
2023-03-02T12:29:12.059Z,3.49
2023-03-02T12:31:57.559Z,3.36
2023-03-02T12:34:51.732Z,3.57
2023-03-02T12:37:48.498Z,3.78
2023-03-02T12:41:02.484Z,3.81
2023-03-02T12:43:58.071Z,3.91
2023-03-02T12:46:48.961Z,3.67
2023-03-02T12:50:16.352Z,3.90
2023-03-02T12:53:04.575Z,4.19
2023-03-02T12:55:49.994Z,3.92
2023-03-02T12:58:35.697Z,3.78
2023-03-02T13:01:29.067Z,3.90
2023-03-02T13:04:26.981Z,3.86
2023-03-02T13:07:22.914Z,3.81
2023-03-02T13:10:30.624Z,4.19
2023-03-02T13:13:39.123Z,4.21
2023-03-02T13:16:24.737Z,4.00
2023-03-02T13:19:16.408Z,3.87
2023-03-02T13:22:01.817Z,4.27
2023-03-02T13:24:51.939Z,4.40
2023-03-02T13:27:37.426Z,4.62
2023-03-02T13:30:26.469Z,4.60
2023-03-02T13:33:23.803Z,4.63
2023-03-02T13:36:27.552Z,4.50
2023-03-02T13:39:28.000Z,4.68
2023-03-02T13:42:26.378Z,4.51
2023-03-02T13:45:22.757Z,4.67
2023-03-02T13:48:14.976Z,4.84
2023-03-02T13:51:16.073Z,4.79
2023-03-02T13:54:06.344Z,4.18
2023-03-02T13:56:52.842Z,4.71
2023-03-02T13:59:39.682Z,4.60
2023-03-02T14:02:29.682Z,4.60
2023-03-02T14:05:18.122Z,4.38
2023-03-02T14:08:03.330Z,4.79
2023-03-02T14:10:51.636Z,4.62
2023-03-02T14:13:47.575Z,4.62
2023-03-02T14:16:36.292Z,4.37
2023-03-02T14:19:22.080Z,4.44
2023-03-02T14:22:11.309Z,4.27
2023-03-02T14:24:56.365Z,4.16
2023-03-02T14:27:44.260Z,4.20
2023-03-02T14:30:29.488Z,4.18
2023-03-02T14:33:34.619Z,4.23
2023-03-02T14:36:28.895Z,4.26
2023-03-02T14:39:27.830Z,4.23
2023-03-02T14:42:16.066Z,4.37
2023-03-02T14:45:01.387Z,4.48
2023-03-02T14:47:47.145Z,4.15
2023-03-02T14:50:38.518Z,4.26
2023-03-02T14:53:29.718Z,3.73
2023-03-02T14:56:17.639Z,4.09
2023-03-02T14:59:02.860Z,3.78
2023-03-02T15:01:48.290Z,3.95
2023-03-02T15:04:34.256Z,3.68
2023-03-02T15:07:21.483Z,3.97
2023-03-02T15:10:08.941Z,4.11
2023-03-02T15:12:54.229Z,4.07
2023-03-02T15:15:41.159Z,3.93
2023-03-02T15:18:26.569Z,3.94
2023-03-02T15:21:17.644Z,3.92
2023-03-02T15:24:03.252Z,3.68
2023-03-02T15:26:52.806Z,3.34
2023-03-02T15:29:38.499Z,3.76
2023-03-02T15:32:23.864Z,3.69
2023-03-02T15:35:09.449Z,3.47
2023-03-02T15:37:55.044Z,3.56
2023-03-02T15:40:40.516Z,3.44
2023-03-02T15:43:26.097Z,3.21
2023-03-02T15:46:12.110Z,3.07
2023-03-02T15:48:57.859Z,2.96
2023-03-02T15:51:44.074Z,3.02
2023-03-02T15:54:32.539Z,2.15
2023-03-02T15:57:18.620Z,2.46
2023-03-02T16:00:05.463Z,2.73
2023-03-02T16:02:51.603Z,2.50
2023-03-02T16:05:37.252Z,2.24
2023-03-02T16:08:23.055Z,2.30
2023-03-02T16:11:10.230Z,1.08
2023-03-02T16:13:56.299Z,2.57
2023-03-02T16:16:43.414Z,1.30
2023-03-02T16:19:29.438Z,2.14
2023-03-02T16:22:15.326Z,1.82
2023-03-02T16:25:01.028Z,2.12
2023-03-02T16:27:47.120Z,1.95
2023-03-02T16:30:39.482Z,2.34
2023-03-02T16:33:29.148Z,2.23
2023-03-02T16:36:14.887Z,1.85
2023-03-02T16:38:59.993Z,2.12
2023-03-02T16:41:45.472Z,2.23
2023-03-02T16:44:31.006Z,1.79
2023-03-02T16:47:16.406Z,2.08
2023-03-02T16:50:02.558Z,2.01
2023-03-02T16:52:48.022Z,1.96
2023-03-02T16:55:33.292Z,1.79
2023-03-02T16:58:18.801Z,1.63
2023-03-02T17:01:09.047Z,1.81
2023-03-02T17:03:54.506Z,1.83
2023-03-02T17:06:59.720Z,1.90
2023-03-02T17:09:45.301Z,1.60
2023-03-02T17:12:30.516Z,1.67
2023-03-02T17:15:15.653Z,1.66
2023-03-02T17:18:01.189Z,1.51
2023-03-02T17:20:51.446Z,1.66
2023-03-02T17:23:37.072Z,1.44
2023-03-02T17:26:22.859Z,1.39
2023-03-02T17:29:08.129Z,0.63
2023-03-02T17:31:53.906Z,1.17
2023-03-02T17:34:39.275Z,1.01
2023-03-02T17:37:24.949Z,0.92
2023-03-02T17:40:15.036Z,0.87
2023-03-02T17:43:00.429Z,0.72
2023-03-02T17:45:45.750Z,0.80
2023-03-02T17:48:31.329Z,0.74
2023-03-02T17:51:17.689Z,0.30
2023-03-02T17:54:04.211Z,0.74
2023-03-02T17:56:49.818Z,0.38
2023-03-02T17:59:35.691Z,-0.27
2023-03-02T18:02:20.895Z,0.31
2023-03-02T18:05:07.232Z,0.19
2023-03-02T18:07:52.604Z,0.16
2023-03-02T18:10:37.974Z,0.22
2023-03-02T18:13:23.542Z,0.18
2023-03-02T18:16:09.288Z,-0.31
2023-03-02T18:18:55.588Z,0.24
2023-03-02T18:21:41.053Z,0.34
2023-03-02T18:24:26.210Z,0.08
2023-03-02T18:27:11.938Z,-0.07
2023-03-02T18:29:57.554Z,0.07
2023-03-02T18:32:44.190Z,-0.08
2023-03-02T18:35:29.452Z,-0.17
2023-03-02T18:38:14.945Z,-0.24
2023-03-02T18:41:03.545Z,-0.24
2023-03-02T18:43:49.668Z,-0.15
2023-03-02T18:46:35.445Z,-0.14
2023-03-02T18:49:21.218Z,-0.01
2023-03-02T18:52:06.649Z,0.01
2023-03-02T18:54:52.096Z,-0.04
2023-03-02T18:57:37.743Z,0.06
2023-03-02T19:00:28.039Z,-0.02
2023-03-02T19:03:15.014Z,-0.35
2023-03-02T19:06:02.024Z,-0.42
2023-03-02T19:08:47.453Z,-0.38
2023-03-02T19:11:33.045Z,-0.52
2023-03-02T19:14:18.454Z,-0.49
2023-03-02T19:17:03.714Z,-0.55
2023-03-02T19:19:49.227Z,-1.03
2023-03-02T19:22:34.750Z,-0.75
2023-03-02T19:25:20.123Z,-0.81
2023-03-02T19:28:07.084Z,-0.88
2023-03-02T19:30:52.259Z,-0.74
2023-03-02T19:33:39.864Z,-0.75
2023-03-02T19:36:25.617Z,-0.97
2023-03-02T19:39:11.024Z,-0.81
2023-03-02T19:41:56.445Z,-0.90
2023-03-02T19:44:41.728Z,-0.85
2023-03-02T19:47:27.082Z,-1.05
2023-03-02T19:50:13.694Z,-1.06
2023-03-02T19:52:59.222Z,-1.09
2023-03-02T19:55:45.319Z,-0.82
2023-03-02T19:58:30.643Z,-0.68
2023-03-02T20:01:18.553Z,-0.59
2023-03-02T20:04:04.259Z,-0.68
2023-03-02T20:06:49.510Z,-0.57
2023-03-02T20:09:34.768Z,-0.49
2023-03-02T20:12:20.042Z,-0.60
2023-03-02T20:15:06.327Z,-0.72
2023-03-02T20:17:52.233Z,-0.77
2023-03-02T20:20:37.360Z,-0.97
2023-03-02T20:23:22.744Z,-1.04
2023-03-02T20:26:08.413Z,-1.05
2023-03-02T20:28:57.087Z,-0.72
2023-03-02T20:31:43.720Z,-0.66
2023-03-02T20:34:29.877Z,-0.40
2023-03-02T20:37:15.853Z,-0.56
2023-03-02T20:40:02.203Z,-0.86
2023-03-02T20:42:47.579Z,-0.67
2023-03-02T20:45:33.390Z,-0.53
2023-03-02T20:48:18.858Z,-1.02
2023-03-02T20:51:05.522Z,-0.70
2023-03-02T20:53:55.490Z,-1.18
2023-03-02T20:56:42.962Z,-0.87
2023-03-02T20:59:29.301Z,-1.47
2023-03-02T21:02:20.526Z,-1.17
2023-03-02T21:05:07.303Z,-1.38
2023-03-02T21:07:54.122Z,-1.52
2023-03-02T21:10:42.526Z,-1.57
2023-03-02T21:13:30.249Z,-2.02
2023-03-02T21:16:29.244Z,-2.09
2023-03-02T21:19:17.365Z,-2.00
2023-03-02T21:22:03.006Z,-1.92
2023-03-02T21:24:48.236Z,-1.75
2023-03-02T21:27:33.604Z,-2.04
2023-03-02T21:30:23.291Z,-2.01
2023-03-02T21:33:09.124Z,-1.85
2023-03-02T21:35:54.583Z,-1.92
2023-03-02T21:38:40.268Z,-1.88
2023-03-02T21:41:25.743Z,-2.13
2023-03-02T21:44:11.224Z,-2.23
2023-03-02T21:46:56.615Z,-2.50
2023-03-02T21:49:41.989Z,-2.38
2023-03-02T21:52:27.627Z,-2.24
2023-03-02T21:55:13.317Z,-2.40
2023-03-02T21:57:59.038Z,-2.55
2023-03-02T22:00:45.892Z,-2.75
2023-03-02T22:03:31.666Z,-2.82
2023-03-02T22:06:20.797Z,-2.82
2023-03-02T22:09:06.086Z,-3.59
2023-03-02T22:11:51.237Z,-2.97
2023-03-02T22:14:37.451Z,-2.80
2023-03-02T22:17:24.825Z,-2.84
2023-03-02T22:20:17.141Z,-3.04
2023-03-02T22:23:02.206Z,-3.16
2023-03-02T22:25:53.414Z,-3.18
2023-03-02T22:28:38.780Z,-2.94
2023-03-02T22:31:24.205Z,-2.73
2023-03-02T22:34:15.327Z,-2.76
2023-03-02T22:37:10.750Z,-2.95
2023-03-02T22:40:00.849Z,-2.55
2023-03-02T22:42:46.012Z,-2.65
2023-03-02T22:45:31.568Z,-2.72
2023-03-02T22:48:19.883Z,-2.67
2023-03-02T22:51:24.061Z,-2.69
2023-03-02T22:54:22.682Z,-2.59
2023-03-02T22:57:29.257Z,-2.37
2023-03-02T23:00:14.592Z,-2.57
2023-03-02T23:03:00.275Z,-2.62
2023-03-02T23:05:47.769Z,-2.45
2023-03-02T23:08:33.078Z,-2.53
2023-03-02T23:11:21.500Z,-2.71
2023-03-02T23:14:23.496Z,-2.99
2023-03-02T23:17:27.194Z,-2.89
2023-03-02T23:20:14.851Z,-2.92
2023-03-02T23:23:00.241Z,-2.76
2023-03-02T23:25:46.398Z,-2.78
2023-03-02T23:28:31.724Z,-3.17
2023-03-02T23:31:17.650Z,-3.68
2023-03-02T23:34:02.987Z,-3.15
2023-03-02T23:36:48.140Z,-2.90
2023-03-02T23:39:33.555Z,-2.88
2023-03-02T23:42:18.739Z,-2.84
2023-03-02T23:45:04.924Z,-2.58
2023-03-02T23:47:50.154Z,-2.75
2023-03-02T23:50:35.347Z,-2.62
2023-03-02T23:53:20.852Z,-2.62
2023-03-02T23:56:06.459Z,-2.61
2023-03-02T23:58:51.800Z,-2.68
